sensor_id;sensor_type;location;lat;lon;timestamp;P1;durP1;ratioP1;P2;durP2;ratioP2
69841;SDS011;57138;51.326;-0.068;2024-01-11T00:02:09;31.40;;;16.52;;
69841;SDS011;57138;51.326;-0.068;2024-01-11T00:04:35;32.70;;;15.55;;
69841;SDS011;57138;51.326;-0.068;2024-01-11T00:07:00;40.90;;;18.55;;
69841;SDS011;57138;51.326;-0.068;2024-01-11T00:09:26;50.67;;;17.08;;
69841;SDS011;57138;51.326;-0.068;2024-01-11T00:11:51;31.98;;;16.52;;
69841;SDS011;57138;51.326;-0.068;2024-01-11T00:14:16;35.08;;;16.63;;
69841;SDS011;57138;51.326;-0.068;2024-01-11T00:16:42;36.45;;;17.63;;
69841;SDS011;57138;51.326;-0.068;2024-01-11T00:19:07;34.97;;;15.75;;
69841;SDS011;57138;51.326;-0.068;2024-01-11T00:21:34;36.10;;;16.98;;
69841;SDS011;57138;51.326;-0.068;2024-01-11T00:24:00;32.63;;;16.55;;
69841;SDS011;57138;51.326;-0.068;2024-01-11T00:26:25;35.85;;;16.75;;
69841;SDS011;57138;51.326;-0.068;2024-01-11T00:28:50;36.75;;;18.13;;
69841;SDS011;57138;51.326;-0.068;2024-01-11T00:31:16;40.13;;;18.90;;
69841;SDS011;57138;51.326;-0.068;2024-01-11T00:33:41;33.20;;;16.70;;
69841;SDS011;57138;51.326;-0.068;2024-01-11T00:36:07;34.35;;;16.10;;
69841;SDS011;57138;51.326;-0.068;2024-01-11T00:38:32;34.47;;;17.15;;
69841;SDS011;57138;51.326;-0.068;2024-01-11T00:40:57;36.80;;;18.23;;
69841;SDS011;57138;51.326;-0.068;2024-01-11T00:43:23;40.45;;;16.95;;
69841;SDS011;57138;51.326;-0.068;2024-01-11T00:45:48;42.22;;;17.80;;
69841;SDS011;57138;51.326;-0.068;2024-01-11T00:48:14;40.03;;;17.65;;
69841;SDS011;57138;51.326;-0.068;2024-01-11T00:50:39;35.83;;;17.08;;
69841;SDS011;57138;51.326;-0.068;2024-01-11T00:53:05;32.78;;;16.48;;
69841;SDS011;57138;51.326;-0.068;2024-01-11T00:55:30;34.83;;;15.82;;
69841;SDS011;57138;51.326;-0.068;2024-01-11T00:57:56;37.72;;;16.30;;
69841;SDS011;57138;51.326;-0.068;2024-01-11T01:00:21;31.15;;;15.90;;
69841;SDS011;57138;51.326;-0.068;2024-01-11T01:02:47;31.52;;;16.23;;
69841;SDS011;57138;51.326;-0.068;2024-01-11T01:05:12;29.42;;;14.85;;
69841;SDS011;57138;51.326;-0.068;2024-01-11T01:07:38;28.52;;;13.60;;
69841;SDS011;57138;51.326;-0.068;2024-01-11T01:10:03;37.25;;;14.73;;
69841;SDS011;57138;51.326;-0.068;2024-01-11T01:12:29;32.53;;;13.73;;
69841;SDS011;57138;51.326;-0.068;2024-01-11T01:14:54;32.92;;;13.77;;
69841;SDS011;57138;51.326;-0.068;2024-01-11T01:17:21;33.70;;;14.93;;
69841;SDS011;57138;51.326;-0.068;2024-01-11T01:19:47;32.15;;;13.35;;
69841;SDS011;57138;51.326;-0.068;2024-01-11T01:22:13;40.63;;;13.48;;
69841;SDS011;57138;51.326;-0.068;2024-01-11T01:24:38;35.30;;;13.05;;
69841;SDS011;57138;51.326;-0.068;2024-01-11T01:27:04;34.92;;;12.10;;
69841;SDS011;57138;51.326;-0.068;2024-01-11T01:29:29;26.88;;;11.48;;
69841;SDS011;57138;51.326;-0.068;2024-01-11T01:31:55;26.67;;;10.88;;
69841;SDS011;57138;51.326;-0.068;2024-01-11T01:34:20;24.95;;;9.77;;
69841;SDS011;57138;51.326;-0.068;2024-01-11T01:36:46;31.35;;;10.93;;
69841;SDS011;57138;51.326;-0.068;2024-01-11T01:39:11;27.48;;;11.35;;
69841;SDS011;57138;51.326;-0.068;2024-01-11T01:41:37;23.75;;;11.00;;
69841;SDS011;57138;51.326;-0.068;2024-01-11T01:44:02;29.13;;;10.13;;
69841;SDS011;57138;51.326;-0.068;2024-01-11T01:46:28;27.92;;;10.40;;
69841;SDS011;57138;51.326;-0.068;2024-01-11T01:48:54;23.88;;;10.15;;
69841;SDS011;57138;51.326;-0.068;2024-01-11T01:51:21;26.58;;;10.10;;
69841;SDS011;57138;51.326;-0.068;2024-01-11T01:53:48;33.80;;;9.50;;
69841;SDS011;57138;51.326;-0.068;2024-01-11T01:56:18;38.22;;;11.35;;
69841;SDS011;57138;51.326;-0.068;2024-01-11T01:58:44;26.20;;;10.65;;
69841;SDS011;57138;51.326;-0.068;2024-01-11T02:01:11;29.75;;;9.60;;
69841;SDS011;57138;51.326;-0.068;2024-01-11T02:03:38;31.88;;;8.90;;
69841;SDS011;57138;51.326;-0.068;2024-01-11T02:06:05;23.92;;;10.15;;
69841;SDS011;57138;51.326;-0.068;2024-01-11T02:08:33;24.60;;;10.38;;
69841;SDS011;57138;51.326;-0.068;2024-01-11T02:11:00;24.35;;;9.73;;
69841;SDS011;57138;51.326;-0.068;2024-01-11T02:13:25;28.75;;;11.13;;
69841;SDS011;57138;51.326;-0.068;2024-01-11T02:15:51;25.20;;;9.05;;
69841;SDS011;57138;51.326;-0.068;2024-01-11T02:18:17;26.65;;;10.50;;
69841;SDS011;57138;51.326;-0.068;2024-01-11T02:20:42;32.45;;;9.80;;
69841;SDS011;57138;51.326;-0.068;2024-01-11T02:23:09;35.67;;;9.25;;
69841;SDS011;57138;51.326;-0.068;2024-01-11T02:25:39;24.35;;;9.00;;
69841;SDS011;57138;51.326;-0.068;2024-01-11T02:28:05;23.30;;;9.43;;
69841;SDS011;57138;51.326;-0.068;2024-01-11T02:30:30;25.65;;;10.05;;
69841;SDS011;57138;51.326;-0.068;2024-01-11T02:32:58;33.70;;;9.85;;
69841;SDS011;57138;51.326;-0.068;2024-01-11T02:35:28;27.90;;;9.63;;
69841;SDS011;57138;51.326;-0.068;2024-01-11T02:37:53;26.65;;;10.02;;
69841;SDS011;57138;51.326;-0.068;2024-01-11T02:40:19;26.20;;;9.73;;
69841;SDS011;57138;51.326;-0.068;2024-01-11T02:42:45;35.13;;;9.52;;
69841;SDS011;57138;51.326;-0.068;2024-01-11T02:45:11;24.83;;;9.68;;
69841;SDS011;57138;51.326;-0.068;2024-01-11T02:47:40;39.53;;;9.30;;
69841;SDS011;57138;51.326;-0.068;2024-01-11T02:50:06;38.85;;;11.15;;
69841;SDS011;57138;51.326;-0.068;2024-01-11T02:52:32;28.83;;;8.98;;
69841;SDS011;57138;51.326;-0.068;2024-01-11T02:54:58;28.63;;;10.10;;
69841;SDS011;57138;51.326;-0.068;2024-01-11T02:57:24;32.78;;;11.30;;
69841;SDS011;57138;51.326;-0.068;2024-01-11T02:59:49;29.80;;;9.85;;
69841;SDS011;57138;51.326;-0.068;2024-01-11T03:02:16;25.92;;;9.88;;
69841;SDS011;57138;51.326;-0.068;2024-01-11T03:04:41;30.45;;;10.05;;
69841;SDS011;57138;51.326;-0.068;2024-01-11T03:07:07;37.67;;;10.40;;
69841;SDS011;57138;51.326;-0.068;2024-01-11T03:09:32;18.55;;;8.75;;
69841;SDS011;57138;51.326;-0.068;2024-01-11T03:11:59;33.28;;;9.98;;
69841;SDS011;57138;51.326;-0.068;2024-01-11T03:14:25;31.23;;;9.20;;
69841;SDS011;57138;51.326;-0.068;2024-01-11T03:16:50;22.27;;;8.23;;
69841;SDS011;57138;51.326;-0.068;2024-01-11T03:19:15;34.75;;;9.05;;
69841;SDS011;57138;51.326;-0.068;2024-01-11T03:21:44;32.90;;;9.30;;
69841;SDS011;57138;51.326;-0.068;2024-01-11T03:24:11;27.02;;;10.05;;
69841;SDS011;57138;51.326;-0.068;2024-01-11T03:26:37;26.55;;;9.57;;
69841;SDS011;57138;51.326;-0.068;2024-01-11T03:29:03;33.70;;;9.73;;
69841;SDS011;57138;51.326;-0.068;2024-01-11T03:31:28;24.67;;;9.23;;
69841;SDS011;57138;51.326;-0.068;2024-01-11T03:33:55;32.92;;;8.90;;
69841;SDS011;57138;51.326;-0.068;2024-01-11T03:36:23;32.08;;;10.90;;
69841;SDS011;57138;51.326;-0.068;2024-01-11T03:38:49;24.55;;;10.07;;
69841;SDS011;57138;51.326;-0.068;2024-01-11T03:41:15;24.33;;;10.30;;
69841;SDS011;57138;51.326;-0.068;2024-01-11T03:43:40;31.85;;;10.77;;
69841;SDS011;57138;51.326;-0.068;2024-01-11T03:46:06;33.92;;;10.90;;
69841;SDS011;57138;51.326;-0.068;2024-01-11T03:48:31;30.83;;;10.07;;
69841;SDS011;57138;51.326;-0.068;2024-01-11T03:50:57;33.40;;;10.75;;
69841;SDS011;57138;51.326;-0.068;2024-01-11T03:53:22;28.85;;;10.20;;
69841;SDS011;57138;51.326;-0.068;2024-01-11T03:55:48;29.23;;;10.07;;
69841;SDS011;57138;51.326;-0.068;2024-01-11T03:58:13;31.10;;;10.10;;
69841;SDS011;57138;51.326;-0.068;2024-01-11T04:00:39;32.20;;;10.90;;
69841;SDS011;57138;51.326;-0.068;2024-01-11T04:03:05;26.38;;;11.25;;
69841;SDS011;57138;51.326;-0.068;2024-01-11T04:05:31;33.35;;;13.07;;
69841;SDS011;57138;51.326;-0.068;2024-01-11T04:07:56;36.33;;;11.93;;
69841;SDS011;57138;51.326;-0.068;2024-01-11T04:10:22;27.40;;;11.63;;
69841;SDS011;57138;51.326;-0.068;2024-01-11T04:12:47;31.88;;;11.82;;
69841;SDS011;57138;51.326;-0.068;2024-01-11T04:15:13;28.30;;;10.95;;
69841;SDS011;57138;51.326;-0.068;2024-01-11T04:17:39;31.98;;;11.98;;
69841;SDS011;57138;51.326;-0.068;2024-01-11T04:20:05;32.28;;;11.38;;
69841;SDS011;57138;51.326;-0.068;2024-01-11T04:22:31;35.55;;;12.25;;
69841;SDS011;57138;51.326;-0.068;2024-01-11T04:24:57;32.90;;;12.57;;
69841;SDS011;57138;51.326;-0.068;2024-01-11T04:27:22;33.25;;;10.82;;
69841;SDS011;57138;51.326;-0.068;2024-01-11T04:29:48;34.95;;;11.98;;
69841;SDS011;57138;51.326;-0.068;2024-01-11T04:32:13;35.67;;;11.52;;
69841;SDS011;57138;51.326;-0.068;2024-01-11T04:34:39;34.45;;;11.63;;
69841;SDS011;57138;51.326;-0.068;2024-01-11T04:37:04;36.75;;;11.73;;
69841;SDS011;57138;51.326;-0.068;2024-01-11T04:39:30;37.50;;;11.27;;
69841;SDS011;57138;51.326;-0.068;2024-01-11T04:41:56;28.90;;;11.52;;
69841;SDS011;57138;51.326;-0.068;2024-01-11T04:44:21;40.08;;;13.27;;
69841;SDS011;57138;51.326;-0.068;2024-01-11T04:46:47;31.80;;;11.90;;
69841;SDS011;57138;51.326;-0.068;2024-01-11T04:49:12;38.40;;;11.68;;
69841;SDS011;57138;51.326;-0.068;2024-01-11T04:51:38;37.13;;;12.90;;
69841;SDS011;57138;51.326;-0.068;2024-01-11T04:54:03;41.17;;;14.15;;
69841;SDS011;57138;51.326;-0.068;2024-01-11T04:56:29;34.65;;;12.30;;
69841;SDS011;57138;51.326;-0.068;2024-01-11T04:58:54;38.88;;;12.68;;
69841;SDS011;57138;51.326;-0.068;2024-01-11T05:01:20;36.17;;;12.05;;
69841;SDS011;57138;51.326;-0.068;2024-01-11T05:03:47;36.88;;;12.02;;
69841;SDS011;57138;51.326;-0.068;2024-01-11T05:06:19;37.25;;;12.57;;
69841;SDS011;57138;51.326;-0.068;2024-01-11T05:08:47;42.65;;;13.75;;
69841;SDS011;57138;51.326;-0.068;2024-01-11T05:11:21;39.13;;;13.10;;
69841;SDS011;57138;51.326;-0.068;2024-01-11T05:13:49;35.95;;;13.40;;
69841;SDS011;57138;51.326;-0.068;2024-01-11T05:16:22;37.20;;;13.15;;
69841;SDS011;57138;51.326;-0.068;2024-01-11T05:18:49;43.63;;;12.55;;
69841;SDS011;57138;51.326;-0.068;2024-01-11T05:21:14;38.88;;;13.65;;
69841;SDS011;57138;51.326;-0.068;2024-01-11T05:23:40;38.85;;;14.13;;
69841;SDS011;57138;51.326;-0.068;2024-01-11T05:26:07;44.90;;;14.40;;
69841;SDS011;57138;51.326;-0.068;2024-01-11T05:28:33;36.20;;;12.93;;
69841;SDS011;57138;51.326;-0.068;2024-01-11T05:30:58;44.40;;;14.38;;
69841;SDS011;57138;51.326;-0.068;2024-01-11T05:33:24;50.28;;;14.18;;
69841;SDS011;57138;51.326;-0.068;2024-01-11T05:35:49;41.08;;;14.30;;
69841;SDS011;57138;51.326;-0.068;2024-01-11T05:38:15;47.55;;;15.60;;
69841;SDS011;57138;51.326;-0.068;2024-01-11T05:40:40;42.17;;;15.02;;
69841;SDS011;57138;51.326;-0.068;2024-01-11T05:43:06;42.28;;;13.65;;
69841;SDS011;57138;51.326;-0.068;2024-01-11T05:45:31;38.35;;;13.07;;
69841;SDS011;57138;51.326;-0.068;2024-01-11T05:47:58;46.22;;;14.48;;
69841;SDS011;57138;51.326;-0.068;2024-01-11T05:50:24;42.90;;;13.55;;
69841;SDS011;57138;51.326;-0.068;2024-01-11T05:52:50;39.10;;;12.95;;
69841;SDS011;57138;51.326;-0.068;2024-01-11T05:55:17;41.25;;;12.95;;
69841;SDS011;57138;51.326;-0.068;2024-01-11T05:57:42;49.45;;;14.77;;
69841;SDS011;57138;51.326;-0.068;2024-01-11T06:00:08;43.20;;;14.38;;
69841;SDS011;57138;51.326;-0.068;2024-01-11T06:02:33;39.63;;;14.38;;
69841;SDS011;57138;51.326;-0.068;2024-01-11T06:04:59;40.97;;;14.65;;
69841;SDS011;57138;51.326;-0.068;2024-01-11T06:07:24;53.30;;;14.73;;
69841;SDS011;57138;51.326;-0.068;2024-01-11T06:09:49;34.80;;;12.40;;
69841;SDS011;57138;51.326;-0.068;2024-01-11T06:12:15;37.22;;;13.10;;
69841;SDS011;57138;51.326;-0.068;2024-01-11T06:14:40;42.63;;;14.25;;
69841;SDS011;57138;51.326;-0.068;2024-01-11T06:17:07;47.33;;;14.80;;
69841;SDS011;57138;51.326;-0.068;2024-01-11T06:19:35;48.35;;;15.27;;
69841;SDS011;57138;51.326;-0.068;2024-01-11T06:22:01;45.40;;;13.52;;
69841;SDS011;57138;51.326;-0.068;2024-01-11T06:24:26;43.33;;;13.85;;
69841;SDS011;57138;51.326;-0.068;2024-01-11T06:26:52;49.03;;;15.23;;
69841;SDS011;57138;51.326;-0.068;2024-01-11T06:29:17;39.83;;;12.43;;
69841;SDS011;57138;51.326;-0.068;2024-01-11T06:31:43;51.17;;;15.60;;
69841;SDS011;57138;51.326;-0.068;2024-01-11T06:34:08;43.30;;;14.38;;
69841;SDS011;57138;51.326;-0.068;2024-01-11T06:36:34;41.45;;;14.07;;
69841;SDS011;57138;51.326;-0.068;2024-01-11T06:38:59;39.28;;;16.23;;
69841;SDS011;57138;51.326;-0.068;2024-01-11T06:41:24;46.95;;;14.23;;
69841;SDS011;57138;51.326;-0.068;2024-01-11T06:43:50;38.88;;;12.82;;
69841;SDS011;57138;51.326;-0.068;2024-01-11T06:46:19;57.75;;;15.07;;
69841;SDS011;57138;51.326;-0.068;2024-01-11T06:48:46;40.35;;;13.25;;
69841;SDS011;57138;51.326;-0.068;2024-01-11T06:51:14;38.53;;;13.65;;
69841;SDS011;57138;51.326;-0.068;2024-01-11T06:53:40;32.72;;;10.43;;
69841;SDS011;57138;51.326;-0.068;2024-01-11T06:56:14;47.22;;;15.15;;
69841;SDS011;57138;51.326;-0.068;2024-01-11T06:58:40;53.20;;;13.80;;
69841;SDS011;57138;51.326;-0.068;2024-01-11T07:01:05;37.75;;;13.73;;
69841;SDS011;57138;51.326;-0.068;2024-01-11T07:03:31;42.20;;;14.95;;
69841;SDS011;57138;51.326;-0.068;2024-01-11T07:05:56;46.30;;;15.68;;
69841;SDS011;57138;51.326;-0.068;2024-01-11T07:08:22;48.50;;;14.43;;
69841;SDS011;57138;51.326;-0.068;2024-01-11T07:10:48;49.67;;;15.75;;
69841;SDS011;57138;51.326;-0.068;2024-01-11T07:13:13;45.17;;;15.48;;
69841;SDS011;57138;51.326;-0.068;2024-01-11T07:15:41;42.10;;;13.35;;
69841;SDS011;57138;51.326;-0.068;2024-01-11T07:18:07;52.90;;;14.60;;
69841;SDS011;57138;51.326;-0.068;2024-01-11T07:20:33;47.03;;;13.73;;
69841;SDS011;57138;51.326;-0.068;2024-01-11T07:22:59;45.70;;;16.00;;
69841;SDS011;57138;51.326;-0.068;2024-01-11T07:25:25;44.55;;;14.00;;
69841;SDS011;57138;51.326;-0.068;2024-01-11T07:27:50;52.38;;;15.95;;
69841;SDS011;57138;51.326;-0.068;2024-01-11T07:30:16;48.75;;;14.25;;
69841;SDS011;57138;51.326;-0.068;2024-01-11T07:32:43;44.50;;;15.25;;
69841;SDS011;57138;51.326;-0.068;2024-01-11T07:35:09;52.20;;;15.68;;
69841;SDS011;57138;51.326;-0.068;2024-01-11T07:37:36;48.38;;;14.75;;
69841;SDS011;57138;51.326;-0.068;2024-01-11T07:40:04;39.95;;;11.13;;
69841;SDS011;57138;51.326;-0.068;2024-01-11T07:42:38;52.25;;;15.60;;
69841;SDS011;57138;51.326;-0.068;2024-01-11T07:45:06;45.25;;;14.32;;
69841;SDS011;57138;51.326;-0.068;2024-01-11T07:47:37;43.42;;;13.85;;
69841;SDS011;57138;51.326;-0.068;2024-01-11T07:50:03;37.95;;;13.57;;
69841;SDS011;57138;51.326;-0.068;2024-01-11T07:52:35;43.90;;;12.38;;
69841;SDS011;57138;51.326;-0.068;2024-01-11T07:55:02;46.13;;;12.90;;
69841;SDS011;57138;51.326;-0.068;2024-01-11T07:57:35;44.85;;;13.50;;
69841;SDS011;57138;51.326;-0.068;2024-01-11T08:00:01;47.42;;;15.43;;
69841;SDS011;57138;51.326;-0.068;2024-01-11T08:02:28;50.00;;;13.57;;
69841;SDS011;57138;51.326;-0.068;2024-01-11T08:04:55;52.35;;;14.23;;
69841;SDS011;57138;51.326;-0.068;2024-01-11T08:07:21;52.72;;;14.82;;
69841;SDS011;57138;51.326;-0.068;2024-01-11T08:09:46;47.42;;;14.25;;
69841;SDS011;57138;51.326;-0.068;2024-01-11T08:12:13;50.53;;;15.15;;
69841;SDS011;57138;51.326;-0.068;2024-01-11T08:14:39;41.67;;;12.98;;
69841;SDS011;57138;51.326;-0.068;2024-01-11T08:17:06;45.60;;;14.20;;
69841;SDS011;57138;51.326;-0.068;2024-01-11T08:19:33;48.92;;;13.05;;
69841;SDS011;57138;51.326;-0.068;2024-01-11T08:21:59;49.70;;;14.50;;
69841;SDS011;57138;51.326;-0.068;2024-01-11T08:24:25;54.67;;;13.10;;
69841;SDS011;57138;51.326;-0.068;2024-01-11T08:26:52;45.88;;;12.27;;
69841;SDS011;57138;51.326;-0.068;2024-01-11T08:29:17;44.72;;;12.80;;
69841;SDS011;57138;51.326;-0.068;2024-01-11T08:31:45;45.88;;;12.23;;
69841;SDS011;57138;51.326;-0.068;2024-01-11T08:34:10;45.42;;;12.05;;
69841;SDS011;57138;51.326;-0.068;2024-01-11T08:36:37;43.78;;;12.63;;
69841;SDS011;57138;51.326;-0.068;2024-01-11T08:39:04;37.92;;;12.25;;
69841;SDS011;57138;51.326;-0.068;2024-01-11T08:41:35;42.53;;;11.75;;
69841;SDS011;57138;51.326;-0.068;2024-01-11T08:44:03;48.17;;;11.73;;
69841;SDS011;57138;51.326;-0.068;2024-01-11T08:46:30;40.28;;;11.23;;
69841;SDS011;57138;51.326;-0.068;2024-01-11T08:48:58;48.70;;;13.13;;
69841;SDS011;57138;51.326;-0.068;2024-01-11T08:51:24;31.13;;;9.73;;
69841;SDS011;57138;51.326;-0.068;2024-01-11T08:53:49;40.50;;;9.90;;
69841;SDS011;57138;51.326;-0.068;2024-01-11T08:56:15;35.80;;;8.93;;
69841;SDS011;57138;51.326;-0.068;2024-01-11T08:58:42;32.33;;;7.97;;
69841;SDS011;57138;51.326;-0.068;2024-01-11T09:01:08;27.85;;;8.27;;
69841;SDS011;57138;51.326;-0.068;2024-01-11T09:03:36;33.45;;;9.15;;
69841;SDS011;57138;51.326;-0.068;2024-01-11T09:06:02;29.85;;;10.13;;
69841;SDS011;57138;51.326;-0.068;2024-01-11T09:08:29;38.45;;;9.55;;
69841;SDS011;57138;51.326;-0.068;2024-01-11T09:10:57;30.48;;;9.77;;
69841;SDS011;57138;51.326;-0.068;2024-01-11T09:13:24;26.48;;;8.63;;
69841;SDS011;57138;51.326;-0.068;2024-01-11T09:15:53;27.23;;;9.77;;
69841;SDS011;57138;51.326;-0.068;2024-01-11T09:18:20;28.80;;;9.65;;
69841;SDS011;57138;51.326;-0.068;2024-01-11T09:20:46;23.85;;;8.32;;
69841;SDS011;57138;51.326;-0.068;2024-01-11T09:23:12;27.80;;;7.90;;
69841;SDS011;57138;51.326;-0.068;2024-01-11T09:25:38;24.85;;;9.10;;
69841;SDS011;57138;51.326;-0.068;2024-01-11T09:28:04;21.80;;;6.93;;
69841;SDS011;57138;51.326;-0.068;2024-01-11T09:30:30;22.25;;;7.28;;
69841;SDS011;57138;51.326;-0.068;2024-01-11T09:32:55;20.27;;;6.55;;
69841;SDS011;57138;51.326;-0.068;2024-01-11T09:35:21;28.17;;;7.45;;
69841;SDS011;57138;51.326;-0.068;2024-01-11T09:37:48;19.05;;;7.03;;
69841;SDS011;57138;51.326;-0.068;2024-01-11T09:40:17;25.65;;;6.45;;
69841;SDS011;57138;51.326;-0.068;2024-01-11T09:42:43;15.93;;;5.47;;
69841;SDS011;57138;51.326;-0.068;2024-01-11T09:45:13;20.95;;;6.65;;
69841;SDS011;57138;51.326;-0.068;2024-01-11T09:47:41;26.77;;;5.72;;
69841;SDS011;57138;51.326;-0.068;2024-01-11T09:50:09;23.10;;;6.78;;
69841;SDS011;57138;51.326;-0.068;2024-01-11T09:52:35;43.50;;;7.07;;
69841;SDS011;57138;51.326;-0.068;2024-01-11T09:55:01;18.38;;;5.60;;
69841;SDS011;57138;51.326;-0.068;2024-01-11T09:57:31;20.42;;;5.32;;
69841;SDS011;57138;51.326;-0.068;2024-01-11T10:00:00;23.13;;;5.90;;
69841;SDS011;57138;51.326;-0.068;2024-01-11T10:02:32;20.98;;;5.72;;
69841;SDS011;57138;51.326;-0.068;2024-01-11T10:04:58;13.98;;;6.43;;
69841;SDS011;57138;51.326;-0.068;2024-01-11T10:07:24;10.32;;;4.45;;
69841;SDS011;57138;51.326;-0.068;2024-01-11T10:09:50;18.35;;;4.80;;
69841;SDS011;57138;51.326;-0.068;2024-01-11T10:12:17;17.63;;;5.55;;
69841;SDS011;57138;51.326;-0.068;2024-01-11T10:14:45;14.75;;;6.18;;
69841;SDS011;57138;51.326;-0.068;2024-01-11T10:17:12;14.77;;;5.57;;
69841;SDS011;57138;51.326;-0.068;2024-01-11T10:19:38;27.20;;;6.47;;
69841;SDS011;57138;51.326;-0.068;2024-01-11T10:22:03;21.85;;;6.55;;
69841;SDS011;57138;51.326;-0.068;2024-01-11T10:24:30;17.50;;;5.35;;
69841;SDS011;57138;51.326;-0.068;2024-01-11T10:26:55;23.08;;;5.45;;
69841;SDS011;57138;51.326;-0.068;2024-01-11T10:29:22;17.52;;;5.18;;
69841;SDS011;57138;51.326;-0.068;2024-01-11T10:31:49;18.52;;;5.88;;
69841;SDS011;57138;51.326;-0.068;2024-01-11T10:34:16;16.13;;;5.55;;
69841;SDS011;57138;51.326;-0.068;2024-01-11T10:36:41;13.95;;;4.90;;
69841;SDS011;57138;51.326;-0.068;2024-01-11T10:39:08;10.80;;;5.32;;
69841;SDS011;57138;51.326;-0.068;2024-01-11T10:41:39;23.15;;;5.63;;
69841;SDS011;57138;51.326;-0.068;2024-01-11T10:44:12;16.25;;;5.55;;
69841;SDS011;57138;51.326;-0.068;2024-01-11T10:46:45;30.20;;;6.15;;
69841;SDS011;57138;51.326;-0.068;2024-01-11T10:49:11;12.73;;;4.85;;
69841;SDS011;57138;51.326;-0.068;2024-01-11T10:51:38;23.35;;;6.70;;
69841;SDS011;57138;51.326;-0.068;2024-01-11T10:54:06;18.52;;;6.90;;
69841;SDS011;57138;51.326;-0.068;2024-01-11T10:56:32;13.90;;;6.20;;
69841;SDS011;57138;51.326;-0.068;2024-01-11T10:58:59;29.88;;;6.55;;
69841;SDS011;57138;51.326;-0.068;2024-01-11T11:01:25;14.93;;;5.35;;
69841;SDS011;57138;51.326;-0.068;2024-01-11T11:03:52;18.55;;;6.35;;
69841;SDS011;57138;51.326;-0.068;2024-01-11T11:06:19;14.95;;;5.82;;
69841;SDS011;57138;51.326;-0.068;2024-01-11T11:08:46;19.30;;;5.90;;
69841;SDS011;57138;51.326;-0.068;2024-01-11T11:11:14;16.02;;;5.03;;
69841;SDS011;57138;51.326;-0.068;2024-01-11T11:13:41;26.25;;;6.80;;
69841;SDS011;57138;51.326;-0.068;2024-01-11T11:16:08;16.08;;;5.55;;
69841;SDS011;57138;51.326;-0.068;2024-01-11T11:18:33;13.18;;;4.78;;
69841;SDS011;57138;51.326;-0.068;2024-01-11T11:21:00;14.13;;;4.55;;
69841;SDS011;57138;51.326;-0.068;2024-01-11T11:23:26;9.52;;;3.13;;
69841;SDS011;57138;51.326;-0.068;2024-01-11T11:25:53;12.05;;;4.13;;
69841;SDS011;57138;51.326;-0.068;2024-01-11T11:28:22;22.02;;;5.97;;
69841;SDS011;57138;51.326;-0.068;2024-01-11T11:30:48;9.88;;;3.15;;
69841;SDS011;57138;51.326;-0.068;2024-01-11T11:33:17;14.10;;;5.03;;
69841;SDS011;57138;51.326;-0.068;2024-01-11T11:35:48;14.55;;;5.22;;
69841;SDS011;57138;51.326;-0.068;2024-01-11T11:38:21;18.92;;;4.13;;
69841;SDS011;57138;51.326;-0.068;2024-01-11T11:40:50;13.48;;;4.60;;
69841;SDS011;57138;51.326;-0.068;2024-01-11T11:43:17;13.13;;;4.15;;
69841;SDS011;57138;51.326;-0.068;2024-01-11T11:45:47;10.15;;;3.88;;
69841;SDS011;57138;51.326;-0.068;2024-01-11T11:51:09;16.40;;;5.07;;
69841;SDS011;57138;51.326;-0.068;2024-01-11T11:53:43;18.95;;;3.50;;
69841;SDS011;57138;51.326;-0.068;2024-01-11T11:56:10;7.97;;;3.70;;
69841;SDS011;57138;51.326;-0.068;2024-01-11T11:58:37;12.27;;;3.50;;
69841;SDS011;57138;51.326;-0.068;2024-01-11T12:01:04;8.77;;;2.95;;
69841;SDS011;57138;51.326;-0.068;2024-01-11T12:05:57;11.98;;;3.60;;
69841;SDS011;57138;51.326;-0.068;2024-01-11T12:08:23;9.88;;;3.78;;
69841;SDS011;57138;51.326;-0.068;2024-01-11T12:10:48;11.20;;;3.97;;
69841;SDS011;57138;51.326;-0.068;2024-01-11T12:13:15;7.93;;;3.30;;
69841;SDS011;57138;51.326;-0.068;2024-01-11T12:15:40;14.50;;;3.85;;
69841;SDS011;57138;51.326;-0.068;2024-01-11T12:18:08;14.48;;;3.42;;
69841;SDS011;57138;51.326;-0.068;2024-01-11T12:20:36;6.40;;;2.85;;
69841;SDS011;57138;51.326;-0.068;2024-01-11T12:23:02;10.13;;;3.50;;
69841;SDS011;57138;51.326;-0.068;2024-01-11T12:25:28;12.88;;;3.33;;
69841;SDS011;57138;51.326;-0.068;2024-01-11T12:27:57;14.57;;;3.17;;
69841;SDS011;57138;51.326;-0.068;2024-01-11T12:30:23;9.73;;;4.30;;
69841;SDS011;57138;51.326;-0.068;2024-01-11T12:32:49;9.40;;;2.95;;
69841;SDS011;57138;51.326;-0.068;2024-01-11T12:35:16;9.90;;;2.88;;
69841;SDS011;57138;51.326;-0.068;2024-01-11T12:38:04;7.43;;;2.85;;
69841;SDS011;57138;51.326;-0.068;2024-01-11T12:40:37;11.45;;;2.33;;
69841;SDS011;57138;51.326;-0.068;2024-01-11T12:43:04;21.92;;;3.50;;
69841;SDS011;57138;51.326;-0.068;2024-01-11T12:45:31;19.00;;;3.00;;
69841;SDS011;57138;51.326;-0.068;2024-01-11T12:48:00;10.50;;;2.35;;
69841;SDS011;57138;51.326;-0.068;2024-01-11T12:50:28;4.80;;;1.50;;
69841;SDS011;57138;51.326;-0.068;2024-01-11T12:53:10;15.43;;;4.35;;
69841;SDS011;57138;51.326;-0.068;2024-01-11T12:55:43;6.20;;;2.03;;
69841;SDS011;57138;51.326;-0.068;2024-01-11T12:58:12;7.13;;;2.60;;
69841;SDS011;57138;51.326;-0.068;2024-01-11T13:00:38;4.53;;;1.90;;
69841;SDS011;57138;51.326;-0.068;2024-01-11T13:03:04;13.43;;;2.58;;
69841;SDS011;57138;51.326;-0.068;2024-01-11T13:05:30;6.53;;;1.73;;
69841;SDS011;57138;51.326;-0.068;2024-01-11T13:08:07;7.15;;;2.20;;
69841;SDS011;57138;51.326;-0.068;2024-01-11T13:10:34;7.10;;;2.00;;
69841;SDS011;57138;51.326;-0.068;2024-01-11T13:13:01;3.00;;;1.20;;
69841;SDS011;57138;51.326;-0.068;2024-01-11T13:15:28;6.57;;;2.38;;
69841;SDS011;57138;51.326;-0.068;2024-01-11T13:17:56;9.65;;;1.98;;
69841;SDS011;57138;51.326;-0.068;2024-01-11T13:20:22;4.75;;;1.42;;
69841;SDS011;57138;51.326;-0.068;2024-01-11T13:22:49;10.30;;;2.70;;
69841;SDS011;57138;51.326;-0.068;2024-01-11T13:25:19;8.73;;;2.00;;
69841;SDS011;57138;51.326;-0.068;2024-01-11T13:27:44;8.13;;;2.22;;
69841;SDS011;57138;51.326;-0.068;2024-01-11T13:30:10;3.65;;;1.60;;
69841;SDS011;57138;51.326;-0.068;2024-01-11T13:32:35;4.75;;;1.77;;
69841;SDS011;57138;51.326;-0.068;2024-01-11T13:35:01;5.40;;;1.77;;
69841;SDS011;57138;51.326;-0.068;2024-01-11T13:37:26;5.85;;;1.85;;
69841;SDS011;57138;51.326;-0.068;2024-01-11T13:39:51;5.35;;;2.33;;
69841;SDS011;57138;51.326;-0.068;2024-01-11T13:42:17;10.43;;;1.92;;
69841;SDS011;57138;51.326;-0.068;2024-01-11T13:44:42;3.90;;;1.90;;
69841;SDS011;57138;51.326;-0.068;2024-01-11T13:47:08;7.22;;;1.88;;
69841;SDS011;57138;51.326;-0.068;2024-01-11T13:49:33;5.78;;;1.65;;
69841;SDS011;57138;51.326;-0.068;2024-01-11T13:51:59;5.25;;;2.00;;
69841;SDS011;57138;51.326;-0.068;2024-01-11T13:54:25;7.00;;;1.70;;
69841;SDS011;57138;51.326;-0.068;2024-01-11T13:56:52;9.60;;;2.17;;
69841;SDS011;57138;51.326;-0.068;2024-01-11T13:59:17;4.63;;;1.70;;
69841;SDS011;57138;51.326;-0.068;2024-01-11T14:01:43;8.52;;;1.95;;
69841;SDS011;57138;51.326;-0.068;2024-01-11T14:04:09;8.18;;;2.25;;
69841;SDS011;57138;51.326;-0.068;2024-01-11T14:06:34;8.55;;;2.00;;
69841;SDS011;57138;51.326;-0.068;2024-01-11T14:09:00;7.93;;;1.30;;
69841;SDS011;57138;51.326;-0.068;2024-01-11T14:11:25;9.02;;;1.88;;
69841;SDS011;57138;51.326;-0.068;2024-01-11T14:13:51;8.88;;;2.05;;
69841;SDS011;57138;51.326;-0.068;2024-01-11T14:16:16;7.63;;;2.15;;
69841;SDS011;57138;51.326;-0.068;2024-01-11T14:18:42;6.43;;;2.13;;